Stevensville, Maryland
Current Conditions -  °F | °C
As of 9:54 AM on Thursday 30 Oct 2014 (Local Time) from KNAK Reporting Station
Broken Clouds Broken Clouds  
Wind Chill: 52°   Ceiling: 7000
Heat Index: 52°   Visibility: 10mi
Dew Point: 42°   Wind: 8mph
Humidity: 69%   Direction: 320°NW
Pressure: 30.06"   Gusts: NA
Location:  38.98°N, 76.31°W
Report Text: KNAK 301354Z AUTO 32007KT 10SM BKN070 11/06 A3006 RMK AO2 SLP181 T01110056
Loading
Personal Weather Stations






























Interactive Weather Map
Tropical Storm Tracking
New forecast layout! Learn more

10-Day Weather Forecast

Advertisements
Track Severe Weather on mobile